Woodbridge, Canada
Current Conditions -  °F | °C
As of 10:00 PM on Friday 24 Oct 2014 (Local Time) from CYYZ Reporting Station
Broken Clouds Broken Clouds  
Wind Chill: 52°   Ceiling: 6000
Heat Index: 52°   Visibility: 15mi
Dew Point: 43°   Wind: 8mph
Humidity: 71%   Direction: 310°NW
Pressure: 29.94"   Gusts: NA
Location:  43.78°N, 79.59°W
Report Text: CYYZ 250200Z 31007KT 15SM SCT035 BKN060 11/06 A2994 RMK SC3SC4 SLP142
Loading
Personal Weather Stations






























Interactive Weather Map
Tropical Storm Tracking
New forecast layout! Learn more

10-Day Weather Forecast

Advertisements
Track Severe Weather on mobile